createdAt,value
2022-09-13T00:00:08.995Z,70.30
2022-09-13T00:02:36.677Z,70.30
2022-09-13T00:05:04.448Z,70.30
2022-09-13T00:07:32.104Z,70.30
2022-09-13T00:10:01.178Z,70.30
2022-09-13T00:12:28.904Z,70.30
2022-09-13T00:14:56.837Z,70.30
2022-09-13T00:17:24.509Z,70.30
2022-09-13T00:19:52.440Z,70.30
2022-09-13T00:22:20.116Z,70.30
2022-09-13T00:24:47.818Z,70.30
2022-09-13T00:27:17.344Z,70.20
2022-09-13T00:29:45.042Z,70.20
2022-09-13T00:32:13.118Z,70.20
2022-09-13T00:34:40.801Z,70.20
2022-09-13T00:37:08.899Z,70.20
2022-09-13T00:39:36.724Z,70.20
2022-09-13T00:42:04.737Z,70.30
2022-09-13T00:44:55.951Z,70.20
2022-09-13T00:47:27.540Z,70.20
2022-09-13T00:49:58.631Z,70.20
2022-09-13T00:52:28.380Z,70.20
2022-09-13T00:55:04.046Z,70.20
2022-09-13T00:57:33.796Z,70.20
2022-09-13T01:00:10.891Z,70.20
2022-09-13T01:02:39.968Z,70.20
2022-09-13T01:05:08.740Z,70.30
2022-09-13T01:07:36.890Z,70.20
2022-09-13T01:10:06.640Z,70.20
2022-09-13T01:12:39.232Z,70.20
2022-09-13T01:15:09.308Z,70.20
2022-09-13T01:17:39.280Z,70.20
2022-09-13T01:20:09.149Z,70.20
2022-09-13T01:23:06.690Z,70.20
2022-09-13T01:26:03.072Z,70.20
2022-09-13T01:28:57.951Z,70.30
2022-09-13T01:31:36.428Z,70.20
2022-09-13T01:34:17.469Z,70.20
2022-09-13T01:36:57.989Z,70.20
2022-09-13T01:39:38.600Z,70.30
2022-09-13T01:42:17.533Z,70.20
2022-09-13T01:45:03.739Z,70.20
2022-09-13T01:47:38.720Z,70.30
2022-09-13T01:50:13.563Z,70.20
2022-09-13T01:52:50.260Z,70.20
2022-09-13T01:55:27.153Z,70.30
2022-09-13T01:58:03.564Z,70.30
2022-09-13T02:00:39.017Z,70.20
2022-09-13T02:03:13.715Z,70.20
2022-09-13T02:05:45.506Z,70.20
2022-09-13T02:08:18.204Z,70.20
2022-09-13T02:10:48.798Z,70.20
2022-09-13T02:13:21.305Z,70.20
2022-09-13T02:15:52.655Z,70.20
2022-09-13T02:18:30.455Z,70.20
2022-09-13T02:21:01.604Z,70.20
2022-09-13T02:23:38.668Z,70.20
2022-09-13T02:26:07.495Z,70.20
2022-09-13T02:28:38.156Z,70.20
2022-09-13T02:31:08.545Z,70.20
2022-09-13T02:33:40.385Z,70.20
2022-09-13T02:36:10.965Z,70.20
2022-09-13T02:38:45.106Z,70.20
2022-09-13T02:41:31.041Z,70.20
2022-09-13T02:44:06.105Z,70.20
2022-09-13T02:47:00.527Z,70.20
2022-09-13T02:49:35.056Z,70.20
2022-09-13T02:52:10.685Z,70.20
2022-09-13T02:54:43.727Z,70.20
2022-09-13T02:57:17.041Z,70.20
2022-09-13T02:59:47.471Z,70.20
2022-09-13T03:02:19.336Z,70.20
2022-09-13T03:04:50.578Z,70.20
2022-09-13T03:07:18.263Z,70.20
2022-09-13T03:09:50.366Z,70.20
2022-09-13T03:12:34.715Z,70.20
2022-09-13T03:15:12.029Z,70.20
2022-09-13T03:17:53.459Z,70.20
2022-09-13T03:20:31.223Z,70.20
2022-09-13T03:23:18.126Z,70.20
2022-09-13T03:26:10.793Z,70.20
2022-09-13T03:28:47.782Z,70.20
2022-09-13T03:31:33.706Z,70.20
2022-09-13T03:34:11.048Z,70.20
2022-09-13T03:36:46.798Z,70.20
2022-09-13T03:39:24.803Z,70.20
2022-09-13T03:41:57.707Z,70.20
2022-09-13T03:44:26.939Z,70.20
2022-09-13T03:46:58.396Z,70.20
2022-09-13T03:49:27.865Z,70.20
2022-09-13T03:51:58.072Z,70.20
2022-09-13T03:54:28.872Z,70.20
2022-09-13T03:57:11.591Z,70.20
2022-09-13T03:59:41.553Z,70.20
2022-09-13T04:02:11.643Z,70.20
2022-09-13T04:04:40.260Z,70.20
2022-09-13T04:07:10.592Z,70.20
2022-09-13T04:09:38.316Z,70.20
2022-09-13T04:12:06.637Z,70.20
2022-09-13T04:14:34.312Z,70.20
2022-09-13T04:17:02.572Z,70.20
2022-09-13T04:19:31.353Z,70.20
2022-09-13T04:21:59.244Z,70.20
2022-09-13T04:24:29.805Z,70.20
2022-09-13T04:26:58.076Z,70.20
2022-09-13T04:29:27.125Z,70.20
2022-09-13T04:31:56.216Z,70.20
2022-09-13T04:34:24.490Z,70.10
2022-09-13T04:36:53.778Z,70.10
2022-09-13T04:39:22.045Z,70.10
2022-09-13T04:41:51.885Z,70.10
2022-09-13T04:44:20.573Z,70.90
2022-09-13T04:46:49.507Z,70.10
2022-09-13T04:49:18.501Z,70.10
2022-09-13T04:51:46.190Z,70.10
2022-09-13T04:54:16.074Z,70.10
2022-09-13T04:56:44.170Z,70.10
2022-09-13T04:59:14.081Z,70.10
2022-09-13T05:01:42.311Z,70.10
2022-09-13T05:04:11.070Z,70.20
2022-09-13T05:06:39.213Z,71.00
2022-09-13T05:09:07.055Z,70.10
2022-09-13T05:11:34.893Z,70.00
2022-09-13T05:14:02.733Z,69.90
2022-09-13T05:16:33.783Z,69.80
2022-09-13T05:19:02.083Z,69.90
2022-09-13T05:21:30.806Z,69.80
2022-09-13T05:23:58.958Z,69.60
2022-09-13T05:26:29.220Z,69.40
2022-09-13T05:28:56.920Z,69.20
2022-09-13T05:31:27.979Z,69.10
2022-09-13T05:33:59.619Z,69.00
2022-09-13T05:36:28.068Z,68.70
2022-09-13T05:39:18.724Z,68.40
2022-09-13T05:41:45.423Z,68.20
2022-09-13T05:44:13.911Z,68.10
2022-09-13T05:46:42.250Z,68.20
2022-09-13T05:49:13.369Z,68.30
2022-09-13T05:51:41.074Z,68.30
2022-09-13T05:54:09.220Z,68.30
2022-09-13T05:56:37.062Z,68.30
2022-09-13T05:59:04.926Z,68.50
2022-09-13T06:01:32.773Z,68.50
2022-09-13T06:04:00.763Z,68.50
2022-09-13T06:06:29.780Z,68.50
2022-09-13T06:08:58.355Z,68.60
2022-09-13T06:11:27.156Z,68.60
2022-09-13T06:13:55.015Z,68.70
2022-09-13T06:16:23.113Z,68.70
2022-09-13T06:18:51.083Z,68.70
2022-09-13T06:21:20.473Z,68.70
2022-09-13T06:23:51.883Z,68.80
2022-09-13T06:26:21.486Z,68.80
2022-09-13T06:28:50.420Z,68.80
2022-09-13T06:31:20.048Z,68.80
2022-09-13T06:33:48.028Z,68.80
2022-09-13T06:36:18.542Z,68.90
2022-09-13T06:38:46.824Z,68.90
2022-09-13T06:41:18.528Z,69.00
2022-09-13T06:43:47.780Z,69.00
2022-09-13T06:46:20.481Z,69.00
2022-09-13T06:48:52.512Z,69.00
2022-09-13T06:51:21.640Z,69.00
2022-09-13T06:53:50.936Z,69.10
2022-09-13T06:56:21.666Z,69.10
2022-09-13T06:58:51.083Z,69.20
2022-09-13T07:01:20.831Z,69.20
2022-09-13T07:03:50.199Z,69.20
2022-09-13T07:06:22.420Z,69.20
2022-09-13T07:08:51.854Z,69.20
2022-09-13T07:11:22.545Z,69.20
2022-09-13T07:13:51.262Z,69.20
2022-09-13T07:16:20.540Z,69.20
2022-09-13T07:18:52.899Z,69.20
2022-09-13T07:21:20.869Z,69.30
2022-09-13T07:23:48.680Z,69.30
2022-09-13T07:26:16.536Z,69.30
2022-09-13T07:28:47.176Z,69.30
2022-09-13T07:31:16.877Z,69.30
2022-09-13T07:33:45.843Z,69.30
2022-09-13T07:36:14.331Z,69.30
2022-09-13T07:38:44.549Z,69.30
2022-09-13T07:41:14.563Z,69.30
2022-09-13T07:43:42.573Z,69.30
2022-09-13T07:46:13.989Z,69.40
2022-09-13T07:48:43.183Z,69.30
2022-09-13T07:51:13.010Z,69.40
2022-09-13T07:53:42.859Z,69.40
2022-09-13T07:56:12.416Z,69.40
2022-09-13T07:58:42.341Z,69.60
2022-09-13T08:01:15.283Z,69.60
2022-09-13T08:03:43.668Z,69.70
2022-09-13T08:06:11.660Z,69.70
2022-09-13T08:08:39.355Z,69.70
2022-09-13T08:11:07.888Z,69.70
2022-09-13T08:13:35.763Z,69.80
2022-09-13T08:16:04.588Z,69.90
2022-09-13T08:18:33.999Z,69.90
2022-09-13T08:21:02.360Z,69.90
2022-09-13T08:23:30.280Z,70.00
2022-09-13T08:26:02.696Z,70.00
2022-09-13T08:28:31.446Z,70.10
2022-09-13T08:31:04.949Z,70.10
2022-09-13T08:33:34.280Z,70.10
2022-09-13T08:36:02.523Z,70.10
2022-09-13T08:38:30.865Z,70.20
2022-09-13T08:41:00.944Z,70.20
2022-09-13T08:43:41.315Z,70.20
2022-09-13T08:46:23.268Z,70.20
2022-09-13T08:48:57.073Z,70.20
2022-09-13T08:51:35.537Z,70.20
2022-09-13T08:54:04.061Z,70.20
2022-09-13T08:56:39.014Z,71.10
2022-09-13T08:59:26.144Z,70.40
2022-09-13T09:02:06.134Z,70.40
2022-09-13T09:04:46.696Z,70.40
2022-09-13T09:07:18.687Z,70.50
2022-09-13T09:09:50.785Z,70.50
2022-09-13T09:12:25.639Z,70.60
2022-09-13T09:15:01.581Z,70.60
2022-09-13T09:17:35.823Z,70.70
2022-09-13T09:20:17.436Z,70.70
2022-09-13T09:22:46.493Z,70.70
2022-09-13T09:25:14.203Z,70.70
2022-09-13T09:27:41.882Z,70.70
2022-09-13T09:30:14.926Z,70.70
2022-09-13T09:32:52.393Z,70.60
2022-09-13T09:35:32.345Z,70.60
2022-09-13T09:38:33.284Z,70.60
2022-09-13T09:41:06.644Z,70.70
2022-09-13T09:43:39.742Z,70.80
2022-09-13T09:46:09.917Z,70.80
2022-09-13T09:48:44.548Z,70.90
2022-09-13T09:51:15.912Z,70.90
2022-09-13T09:53:47.318Z,70.90
2022-09-13T09:56:24.254Z,71.00
2022-09-13T09:58:53.975Z,71.10
2022-09-13T10:01:25.651Z,71.20
2022-09-13T10:04:01.617Z,71.30
2022-09-13T10:06:31.969Z,71.40
2022-09-13T10:09:02.875Z,71.60
2022-09-13T10:11:40.631Z,71.70
2022-09-13T10:14:29.300Z,71.90
2022-09-13T10:17:15.929Z,72.10
2022-09-13T10:19:57.566Z,72.10
2022-09-13T10:22:27.329Z,72.50
2022-09-13T10:24:55.886Z,72.60
2022-09-13T10:27:27.661Z,72.70
2022-09-13T10:29:59.652Z,72.70
2022-09-13T10:32:27.902Z,72.70
2022-09-13T10:34:57.103Z,72.80
2022-09-13T10:37:31.359Z,72.70
2022-09-13T10:40:05.324Z,72.70
2022-09-13T10:42:33.280Z,72.70
2022-09-13T10:45:03.323Z,72.60
2022-09-13T10:47:35.644Z,72.70
2022-09-13T10:50:21.717Z,73.50
2022-09-13T10:52:51.694Z,73.50
2022-09-13T10:55:32.249Z,72.70
2022-09-13T10:58:19.768Z,73.50
2022-09-13T11:01:12.640Z,72.80
2022-09-13T11:03:56.676Z,72.80
2022-09-13T11:06:31.460Z,72.90
2022-09-13T11:09:07.183Z,72.80
2022-09-13T11:11:42.347Z,72.90
2022-09-13T11:14:22.529Z,72.90
2022-09-13T11:16:59.772Z,72.90
2022-09-13T11:20:05.008Z,72.90
2022-09-13T11:22:48.531Z,72.90
2022-09-13T11:25:30.829Z,72.90
2022-09-13T11:28:08.820Z,73.00
2022-09-13T11:30:46.390Z,73.00
2022-09-13T11:33:37.915Z,73.00
2022-09-13T11:36:19.615Z,73.00
2022-09-13T11:39:03.438Z,73.00
2022-09-13T11:41:41.501Z,73.00
2022-09-13T11:44:29.603Z,73.00
2022-09-13T11:47:05.341Z,73.00
2022-09-13T11:49:53.265Z,73.10
2022-09-13T11:52:31.812Z,73.10
2022-09-13T11:55:08.593Z,73.10
2022-09-13T11:57:41.528Z,73.10
2022-09-13T12:00:20.520Z,73.20
2022-09-13T12:03:00.666Z,73.30
2022-09-13T12:05:32.863Z,73.20
2022-09-13T12:08:06.683Z,73.30
2022-09-13T12:10:40.785Z,73.30
2022-09-13T12:13:15.976Z,73.40
2022-09-13T12:15:45.597Z,73.40
2022-09-13T12:18:17.185Z,73.50
2022-09-13T12:20:51.370Z,73.50
2022-09-13T12:23:25.214Z,73.60
2022-09-13T12:25:57.898Z,73.60
2022-09-13T12:28:31.092Z,73.70
2022-09-13T12:31:03.304Z,73.70
2022-09-13T12:33:31.167Z,73.70
2022-09-13T12:36:46.994Z,73.80
2022-09-13T12:39:54.547Z,73.80
2022-09-13T12:42:51.471Z,73.80
2022-09-13T12:45:54.581Z,73.80
2022-09-13T12:48:39.640Z,73.90
2022-09-13T12:51:15.058Z,73.90
2022-09-13T12:54:12.613Z,74.00
2022-09-13T12:56:58.066Z,74.00
2022-09-13T12:59:38.910Z,74.10
2022-09-13T13:02:34.744Z,74.10
2022-09-13T13:05:05.473Z,74.10
2022-09-13T13:07:38.053Z,74.00
2022-09-13T13:10:07.102Z,74.10
2022-09-13T13:12:37.580Z,74.10
2022-09-13T13:15:08.613Z,74.10
2022-09-13T13:17:49.090Z,74.10
2022-09-13T13:21:04.271Z,74.10
2022-09-13T13:23:34.449Z,74.10
2022-09-13T13:26:11.748Z,74.10
2022-09-13T13:29:14.016Z,74.10
2022-09-13T13:31:44.263Z,74.10
2022-09-13T13:34:30.214Z,74.10
2022-09-13T13:37:02.026Z,74.00
2022-09-13T13:39:41.475Z,74.00
2022-09-13T13:42:20.356Z,74.10
2022-09-13T13:45:19.624Z,74.00
2022-09-13T13:48:15.037Z,74.00
2022-09-13T13:51:15.905Z,74.00
2022-09-13T13:53:47.963Z,74.10
2022-09-13T13:56:44.868Z,74.10
2022-09-13T13:59:17.237Z,74.10
2022-09-13T14:01:51.146Z,74.20
2022-09-13T14:04:51.661Z,74.30
2022-09-13T14:07:35.501Z,74.30
2022-09-13T14:10:10.482Z,74.30
2022-09-13T14:12:53.398Z,74.30
2022-09-13T14:15:43.662Z,74.40
2022-09-13T14:18:31.085Z,74.40
2022-09-13T14:21:00.339Z,74.40
2022-09-13T14:23:28.182Z,74.40
2022-09-13T14:25:59.351Z,74.50
2022-09-13T14:28:28.195Z,74.40
2022-09-13T14:30:58.262Z,74.40
2022-09-13T14:33:32.078Z,74.40
2022-09-13T14:36:06.268Z,74.40
2022-09-13T14:38:35.526Z,74.40
2022-09-13T14:41:14.773Z,74.30
2022-09-13T14:43:42.765Z,74.40
2022-09-13T14:46:17.283Z,74.30
2022-09-13T14:48:51.377Z,74.30
2022-09-13T14:51:23.380Z,74.40
2022-09-13T14:53:57.926Z,74.40
2022-09-13T14:56:33.961Z,74.30
2022-09-13T14:59:07.781Z,74.40
2022-09-13T15:01:36.762Z,74.30
2022-09-13T15:04:06.606Z,74.40
2022-09-13T15:06:38.215Z,74.30
2022-09-13T15:09:18.500Z,74.30
2022-09-13T15:11:59.131Z,74.40
2022-09-13T15:14:29.039Z,74.40
2022-09-13T15:17:01.611Z,74.40
2022-09-13T15:19:32.727Z,74.40
2022-09-13T15:22:21.911Z,74.40
2022-09-13T15:24:52.733Z,74.40
2022-09-13T15:27:26.928Z,74.50
2022-09-13T15:29:57.256Z,74.40
2022-09-13T15:32:31.869Z,74.40
2022-09-13T15:35:00.948Z,74.50
2022-09-13T15:37:35.089Z,74.50
2022-09-13T15:40:12.951Z,74.50
2022-09-13T15:42:42.056Z,74.40
2022-09-13T15:45:10.978Z,74.40
2022-09-13T15:47:38.802Z,74.40
2022-09-13T15:50:07.319Z,74.40
2022-09-13T15:52:35.011Z,74.40
2022-09-13T15:55:02.851Z,74.40
2022-09-13T15:57:31.024Z,74.40
2022-09-13T16:00:05.536Z,74.40
2022-09-13T16:02:37.307Z,74.40
2022-09-13T16:05:07.106Z,74.40
2022-09-13T16:07:35.347Z,74.30
2022-09-13T16:10:03.461Z,74.30
2022-09-13T16:12:31.098Z,74.30
2022-09-13T16:15:00.073Z,74.30
2022-09-13T16:17:28.612Z,74.30
2022-09-13T16:19:56.376Z,74.30
2022-09-13T16:22:24.345Z,74.30
2022-09-13T16:24:52.165Z,74.30
2022-09-13T16:27:20.836Z,74.30
2022-09-13T16:29:48.721Z,74.30
2022-09-13T16:32:17.765Z,74.30
2022-09-13T16:34:45.702Z,74.20
2022-09-13T16:37:15.850Z,74.30
2022-09-13T16:39:44.006Z,74.30
2022-09-13T16:42:12.157Z,74.30
2022-09-13T16:44:39.856Z,74.30
2022-09-13T16:47:07.709Z,74.30
2022-09-13T16:49:36.774Z,74.30
2022-09-13T16:52:05.268Z,74.30
2022-09-13T16:54:34.380Z,74.30
2022-09-13T16:57:02.263Z,74.40
2022-09-13T16:59:30.194Z,74.50
2022-09-13T17:01:58.609Z,74.50
2022-09-13T17:04:26.748Z,74.50
2022-09-13T17:06:55.970Z,74.70
2022-09-13T17:09:27.371Z,74.90
2022-09-13T17:11:55.541Z,75.10
2022-09-13T17:14:23.365Z,75.30
2022-09-13T17:16:52.623Z,75.60
2022-09-13T17:19:22.597Z,75.80
2022-09-13T17:21:51.075Z,75.90
2022-09-13T17:24:20.127Z,75.90
2022-09-13T17:26:47.871Z,75.90
2022-09-13T17:29:16.313Z,75.90
2022-09-13T17:31:44.315Z,76.00
2022-09-13T17:34:12.847Z,76.10
2022-09-13T17:36:40.789Z,76.00
2022-09-13T17:39:08.607Z,76.10
2022-09-13T17:41:37.974Z,76.10
2022-09-13T17:44:05.805Z,76.20
2022-09-13T17:46:33.938Z,76.30
2022-09-13T17:49:01.933Z,76.40
2022-09-13T17:51:31.083Z,77.10
2022-09-13T17:54:00.423Z,76.40
2022-09-13T17:56:30.451Z,76.40
2022-09-13T17:59:09.809Z,76.50
2022-09-13T18:01:39.741Z,76.60
2022-09-13T18:04:07.704Z,76.60
2022-09-13T18:06:35.471Z,76.60
2022-09-13T18:09:03.318Z,76.70
2022-09-13T18:11:30.999Z,76.70
2022-09-13T18:14:00.143Z,76.80
2022-09-13T18:16:29.425Z,76.80
2022-09-13T18:18:57.618Z,76.90
2022-09-13T18:21:27.091Z,76.90
2022-09-13T18:23:57.945Z,76.80
2022-09-13T18:26:27.068Z,76.90
2022-09-13T18:28:57.058Z,77.00
2022-09-13T18:31:26.305Z,77.00
2022-09-13T18:33:58.863Z,77.10
2022-09-13T18:36:28.427Z,77.10
2022-09-13T18:38:57.589Z,77.20
2022-09-13T18:41:26.832Z,77.20
2022-09-13T18:43:56.463Z,77.20
2022-09-13T18:46:27.340Z,77.20
2022-09-13T18:48:57.280Z,77.30
2022-09-13T18:51:27.009Z,77.30
2022-09-13T18:53:55.597Z,77.20
2022-09-13T18:56:24.351Z,77.20
2022-09-13T18:58:53.133Z,77.20
2022-09-13T19:01:22.524Z,77.20
2022-09-13T19:03:53.218Z,77.20
2022-09-13T19:06:22.592Z,77.20
2022-09-13T19:08:51.545Z,77.20
2022-09-13T19:11:44.587Z,77.20
2022-09-13T19:14:10.467Z,77.30
2022-09-13T19:16:38.185Z,77.20
2022-09-13T19:19:07.310Z,77.30
2022-09-13T19:21:35.049Z,77.30
2022-09-13T19:24:07.954Z,77.30
2022-09-13T19:26:38.991Z,77.30
2022-09-13T19:29:10.916Z,77.30
2022-09-13T19:31:40.622Z,77.30
2022-09-13T19:34:10.653Z,77.30
2022-09-13T19:36:40.042Z,78.10
2022-09-13T19:39:08.984Z,77.40
2022-09-13T19:41:38.113Z,77.40
2022-09-13T19:44:06.922Z,77.40
2022-09-13T19:46:37.901Z,77.40
2022-09-13T19:49:06.624Z,77.40
2022-09-13T19:51:37.633Z,77.40
2022-09-13T19:54:07.468Z,77.40
2022-09-13T19:56:37.816Z,77.30
2022-09-13T19:59:06.981Z,77.30
2022-09-13T20:01:36.772Z,77.20
2022-09-13T20:04:06.122Z,77.20
2022-09-13T20:06:38.346Z,77.10
2022-09-13T20:09:06.575Z,77.00
2022-09-13T20:11:37.676Z,77.00
2022-09-13T20:14:09.275Z,76.90
2022-09-13T20:16:39.281Z,76.80
2022-09-13T20:19:29.722Z,76.70
2022-09-13T20:21:57.301Z,76.70
2022-09-13T20:24:25.341Z,76.60
2022-09-13T20:26:53.063Z,76.50
2022-09-13T20:29:20.769Z,76.50
2022-09-13T20:31:48.442Z,76.40
2022-09-13T20:34:16.288Z,76.40
2022-09-13T20:36:46.948Z,76.40
2022-09-13T20:39:16.302Z,76.40
2022-09-13T20:41:44.945Z,76.30
2022-09-13T20:44:12.971Z,76.30
2022-09-13T20:46:42.544Z,76.20
2022-09-13T20:49:10.320Z,76.20
2022-09-13T20:51:38.427Z,76.20
2022-09-13T20:54:06.398Z,76.10
2022-09-13T20:56:36.040Z,76.10
2022-09-13T20:59:04.977Z,76.00
2022-09-13T21:01:33.257Z,76.00
2022-09-13T21:04:02.810Z,76.00
2022-09-13T21:06:31.803Z,76.00
2022-09-13T21:08:59.731Z,75.90
2022-09-13T21:11:30.238Z,75.90
2022-09-13T21:14:01.168Z,75.90
2022-09-13T21:16:30.795Z,75.90
2022-09-13T21:18:58.591Z,75.90
2022-09-13T21:21:29.699Z,75.80
2022-09-13T21:23:57.905Z,75.80
2022-09-13T21:26:28.417Z,75.80
2022-09-13T21:28:57.466Z,75.80
2022-09-13T21:31:28.705Z,75.70
2022-09-13T21:33:57.633Z,75.70
2022-09-13T21:36:25.939Z,75.60
2022-09-13T21:38:54.246Z,75.60
2022-09-13T21:41:23.401Z,75.60
2022-09-13T21:43:51.096Z,75.60
2022-09-13T21:46:20.777Z,75.60
2022-09-13T21:48:51.667Z,75.50
2022-09-13T21:51:22.036Z,75.50
2022-09-13T21:53:57.663Z,75.50
2022-09-13T21:56:28.062Z,75.50
2022-09-13T21:58:58.389Z,75.40
2022-09-13T22:01:29.489Z,75.40
2022-09-13T22:03:59.661Z,75.40
2022-09-13T22:06:33.138Z,75.30
2022-09-13T22:09:02.779Z,75.30
2022-09-13T22:11:32.312Z,75.30
2022-09-13T22:14:02.154Z,75.30
2022-09-13T22:16:32.185Z,75.30
2022-09-13T22:19:08.745Z,75.30
2022-09-13T22:21:39.924Z,75.30
2022-09-13T22:24:09.473Z,75.30
2022-09-13T22:26:39.562Z,75.20
2022-09-13T22:29:08.653Z,75.20
2022-09-13T22:31:38.776Z,75.20
2022-09-13T22:34:08.968Z,75.20
2022-09-13T22:36:36.749Z,75.20
2022-09-13T22:39:05.526Z,75.20
2022-09-13T22:41:35.043Z,75.10
2022-09-13T22:44:03.470Z,75.10
2022-09-13T22:46:33.804Z,75.10
2022-09-13T22:49:02.221Z,75.10
2022-09-13T22:51:31.447Z,75.10
2022-09-13T22:54:03.557Z,75.10
2022-09-13T22:56:35.622Z,75.10
2022-09-13T22:59:06.081Z,75.10
2022-09-13T23:01:34.147Z,75.10
2022-09-13T23:04:02.815Z,75.00
2022-09-13T23:06:32.700Z,75.10
2022-09-13T23:09:02.431Z,75.00
2022-09-13T23:11:31.907Z,75.00
2022-09-13T23:14:02.205Z,75.10
2022-09-13T23:16:32.185Z,75.10
2022-09-13T23:19:00.619Z,75.00
2022-09-13T23:21:32.193Z,75.00
2022-09-13T23:24:00.962Z,75.00
2022-09-13T23:26:29.725Z,75.00
2022-09-13T23:28:59.633Z,74.90
2022-09-13T23:31:29.584Z,74.90
2022-09-13T23:33:59.555Z,75.00
2022-09-13T23:36:29.117Z,74.90
2022-09-13T23:39:02.663Z,74.90
2022-09-13T23:41:31.680Z,75.00
2022-09-13T23:43:59.483Z,75.00
2022-09-13T23:46:27.265Z,75.00
2022-09-13T23:48:54.988Z,75.00
2022-09-13T23:51:24.557Z,75.00
2022-09-13T23:53:56.477Z,75.00
2022-09-13T23:56:26.749Z,75.00
2022-09-13T23:58:56.557Z,75.00
